Time;durP1;ratioP1;P1;durP2;ratioP2;P2;SDS_P1;SDS_P2;PMS_P1;PMS_P2;Temp;Humidity;BMP_temperature;BMP_pressure;BME280_temperature;BME280_humidity;BME280_pressure;Samples;Min_cycle;Max_cycle;Signal;HPM_P1;HPM_P2
2022/03/13 00:00:19;;;;;;;38.03;18.95;;;5.80;46.20;;;;;;5095148;28;20542;-75
2022/03/13 00:02:45;;;;;;;32.22;19.00;;;5.80;46.40;;;;;;5095131;28;20024;-75
2022/03/13 00:05:14;;;;;;;33.05;19.13;;;5.70;46.60;;;;;;5095115;28;20027;-76
2022/03/13 00:07:41;;;;;;;33.30;17.42;;;5.70;46.70;;;;;;5094816;28;20020;-74
2022/03/13 00:10:07;;;;;;;33.55;18.50;;;5.60;46.70;;;;;;5094803;28;20117;-74
2022/03/13 00:12:34;;;;;;;37.40;20.25;;;5.70;47.00;;;;;;5093844;28;20020;-74
2022/03/13 00:15:05;;;;;;;38.72;20.38;;;5.60;46.90;;;;;;5094785;28;20024;-75
2022/03/13 00:17:31;;;;;;;35.30;19.98;;;5.60;46.90;;;;;;5094649;28;20060;-76
2022/03/13 00:20:03;;;;;;;34.05;18.85;;;5.50;46.80;;;;;;5094760;28;20071;-75
2022/03/13 00:22:32;;;;;;;36.47;19.48;;;5.40;46.80;;;;;;5094798;28;20038;-76
2022/03/13 00:25:03;;;;;;;39.28;19.67;;;5.30;46.90;;;;;;5093481;28;20093;-76
2022/03/13 00:27:34;;;;;;;34.25;19.92;;;5.10;47.10;;;;;;5094102;28;20058;-76
2022/03/13 00:30:01;;;;;;;36.78;19.02;;;5.10;47.30;;;;;;5094104;28;20036;-76
2022/03/13 00:32:27;;;;;;;32.45;18.10;;;5.10;47.30;;;;;;5094586;28;20114;-75
2022/03/13 00:34:53;;;;;;;38.38;19.50;;;5.00;47.40;;;;;;5094470;28;20484;-75
2022/03/13 00:37:18;;;;;;;36.72;20.33;;;5.00;47.40;;;;;;5094323;28;20063;-76
2022/03/13 00:39:46;;;;;;;35.78;19.67;;;5.10;47.70;;;;;;5094488;28;20023;-76
2022/03/13 00:42:15;;;;;;;32.78;18.33;;;5.10;47.90;;;;;;5093183;28;20376;-75
2022/03/13 00:44:41;;;;;;;32.97;18.05;;;5.10;48.00;;;;;;5094297;28;20158;-75
2022/03/13 00:47:07;;;;;;;31.63;18.08;;;5.10;48.10;;;;;;5094247;28;20074;-76
2022/03/13 00:49:33;;;;;;;35.55;20.20;;;5.10;48.20;;;;;;5094040;28;20539;-77
2022/03/13 00:51:59;;;;;;;30.73;18.23;;;4.90;48.20;;;;;;5094318;28;20106;-76
2022/03/13 00:54:25;;;;;;;31.90;17.02;;;4.90;48.60;;;;;;5093978;28;20350;-77
2022/03/13 00:56:51;;;;;;;34.55;18.48;;;4.90;48.80;;;;;;5092495;28;20030;-77
2022/03/13 00:59:17;;;;;;;34.60;17.98;;;4.80;48.90;;;;;;5093712;28;20031;-75
2022/03/13 01:01:42;;;;;;;32.03;17.38;;;4.80;48.90;;;;;;5093735;28;20039;-75
2022/03/13 01:04:08;;;;;;;37.95;19.13;;;4.80;49.00;;;;;;5093859;28;20091;-75
2022/03/13 01:06:33;;;;;;;31.70;18.02;;;4.80;49.20;;;;;;5093772;28;20047;-75
2022/03/13 01:08:59;;;;;;;31.73;17.63;;;4.70;49.50;;;;;;5093501;28;20109;-75
2022/03/13 01:11:24;;;;;;;31.13;17.90;;;4.70;49.60;;;;;;5093827;28;20077;-75
2022/03/13 01:13:50;;;;;;;30.75;17.00;;;4.70;49.60;;;;;;5093490;28;20438;-75
2022/03/13 01:16:18;;;;;;;30.90;17.45;;;4.70;49.50;;;;;;5093241;28;20101;-75
2022/03/13 01:18:52;;;;;;;32.08;18.45;;;4.60;49.40;;;;;;5093523;28;20031;-75
2022/03/13 01:21:19;;;;;;;32.83;17.50;;;4.60;49.50;;;;;;5093460;28;20066;-75
2022/03/13 01:24:05;;;;;;;35.75;19.63;;;4.60;49.50;;;;;;5093232;28;20388;-76
2022/03/13 01:26:36;;;;;;;27.80;17.35;;;4.70;49.40;;;;;;5093478;28;20048;-75
2022/03/13 01:29:12;;;;;;;32.17;16.63;;;4.70;49.60;;;;;;5093315;28;20361;-75
2022/03/13 01:31:42;;;;;;;35.97;18.63;;;4.70;49.40;;;;;;5093304;28;20028;-75
2022/03/13 01:34:11;;;;;;;33.85;17.98;;;4.60;48.90;;;;;;5093268;28;20020;-75
2022/03/13 01:36:37;;;;;;;32.38;17.92;;;4.60;49.10;;;;;;5091924;28;20106;-75
2022/03/13 01:39:03;;;;;;;34.10;18.20;;;4.50;49.20;;;;;;5093160;28;20055;-75
2022/03/13 01:41:29;;;;;;;31.13;17.73;;;4.50;49.20;;;;;;5093363;28;20027;-75
2022/03/13 01:43:59;;;;;;;34.75;17.88;;;4.40;49.40;;;;;;5093171;28;20028;-75
2022/03/13 01:46:26;;;;;;;32.55;17.80;;;4.40;49.50;;;;;;5093079;28;20059;-75
2022/03/13 01:48:58;;;;;;;34.13;17.73;;;4.40;49.40;;;;;;5091710;28;20129;-75
2022/03/13 01:51:25;;;;;;;29.75;16.42;;;4.50;49.40;;;;;;5093178;28;20028;-75
2022/03/13 01:53:53;;;;;;;32.20;17.15;;;4.50;49.30;;;;;;5093078;28;20350;-76
2022/03/13 01:56:21;;;;;;;33.55;16.73;;;4.60;49.20;;;;;;5093122;28;20016;-76
2022/03/13 01:58:49;;;;;;;28.50;16.20;;;4.60;49.20;;;;;;5092964;28;20103;-75
2022/03/13 02:01:17;;;;;;;34.05;18.30;;;4.60;49.20;;;;;;5091715;28;20024;-75
2022/03/13 02:03:43;;;;;;;37.10;19.45;;;4.50;49.50;;;;;;5092957;28;20422;-75
2022/03/13 02:06:09;;;;;;;33.13;18.15;;;4.40;49.60;;;;;;5092896;28;20032;-75
2022/03/13 02:08:36;;;;;;;33.15;18.35;;;4.30;49.90;;;;;;5092989;28;20024;-75
2022/03/13 02:11:02;;;;;;;38.47;17.63;;;4.10;50.30;;;;;;5092792;28;20127;-75
2022/03/13 02:13:28;;;;;;;31.85;17.95;;;4.10;50.60;;;;;;5092975;28;20021;-75
2022/03/13 02:15:55;;;;;;;36.38;18.38;;;3.90;50.90;;;;;;5092728;28;20048;-75
2022/03/13 02:18:20;;;;;;;35.55;18.55;;;3.90;51.30;;;;;;5093022;28;20016;-75
2022/03/13 02:20:46;;;;;;;39.28;19.15;;;3.80;51.60;;;;;;5092892;28;20107;-75
2022/03/13 02:23:26;;;;;;;32.50;18.42;;;3.70;52.00;;;;;;5092774;28;20063;-75
2022/03/13 02:25:55;;;;;;;33.10;17.77;;;3.60;52.30;;;;;;5092770;28;20436;-75
2022/03/13 02:28:23;;;;;;;36.50;18.30;;;3.60;52.40;;;;;;5092496;28;20051;-75
2022/03/13 02:30:50;;;;;;;32.40;17.67;;;3.50;52.60;;;;;;5091234;28;20028;-75
2022/03/13 02:33:19;;;;;;;35.70;18.58;;;3.50;52.80;;;;;;5092574;28;20095;-75
2022/03/13 02:35:57;;;;;;;38.38;18.45;;;3.50;52.80;;;;;;5093701;28;20547;-75
2022/03/13 02:38:24;;;;;;;33.25;17.85;;;3.50;53.00;;;;;;5096621;28;20036;-76
2022/03/13 02:40:51;;;;;;;31.67;17.23;;;3.30;53.20;;;;;;5095394;28;20089;-75
2022/03/13 02:43:17;;;;;;;37.80;18.83;;;3.40;53.20;;;;;;5096512;28;20028;-75
2022/03/13 02:45:43;;;;;;;37.83;17.42;;;3.40;53.20;;;;;;5096417;28;20104;-75
2022/03/13 02:48:10;;;;;;;32.72;17.38;;;3.50;53.30;;;;;;5096305;28;20025;-76
2022/03/13 02:50:36;;;;;;;34.80;17.98;;;3.50;52.90;;;;;;5096300;28;20032;-75
2022/03/13 02:53:03;;;;;;;36.70;17.70;;;3.40;52.70;;;;;;5096343;28;20031;-75
2022/03/13 02:55:30;;;;;;;40.20;18.48;;;3.40;53.50;;;;;;5096338;28;20361;-75
2022/03/13 02:57:56;;;;;;;34.67;17.75;;;3.40;52.80;;;;;;5096290;28;20154;-75
2022/03/13 03:00:38;;;;;;;33.88;16.67;;;3.50;52.90;;;;;;5096484;28;20506;-75
2022/03/13 03:03:04;;;;;;;32.45;17.33;;;3.50;52.80;;;;;;5100226;28;20052;-75
2022/03/13 03:05:31;;;;;;;36.83;17.67;;;3.50;52.80;;;;;;5106892;28;20062;-75
2022/03/13 03:07:57;;;;;;;37.17;18.60;;;3.50;52.90;;;;;;5104642;28;20027;-76
2022/03/13 03:10:23;;;;;;;34.38;17.52;;;3.50;52.90;;;;;;5095781;28;20043;-75
2022/03/13 03:12:48;;;;;;;35.10;17.45;;;3.40;53.00;;;;;;5095898;28;20051;-75
2022/03/13 03:15:18;;;;;;;30.27;16.73;;;3.40;52.70;;;;;;5095444;28;20028;-76
2022/03/13 03:17:43;;;;;;;34.60;18.52;;;3.40;52.70;;;;;;5095712;28;20024;-75
2022/03/13 03:20:11;;;;;;;34.95;17.90;;;3.40;52.60;;;;;;5095762;28;20035;-75
2022/03/13 03:22:37;;;;;;;34.83;18.15;;;3.50;52.40;;;;;;5095722;28;20071;-76
2022/03/13 03:25:03;;;;;;;36.00;17.95;;;3.60;52.10;;;;;;5095656;28;20056;-76
2022/03/13 03:27:31;;;;;;;36.05;17.35;;;3.50;52.10;;;;;;5094410;28;20507;-75
2022/03/13 03:30:00;;;;;;;37.70;19.40;;;3.50;52.40;;;;;;5095395;28;20032;-75
2022/03/13 03:32:26;;;;;;;35.50;18.77;;;3.40;52.50;;;;;;5095748;28;20024;-75
2022/03/13 03:34:52;;;;;;;30.67;16.80;;;3.40;52.60;;;;;;5095477;28;20035;-75
2022/03/13 03:37:17;;;;;;;32.67;17.85;;;3.30;52.80;;;;;;5095480;28;20021;-74
2022/03/13 03:39:43;;;;;;;32.95;17.48;;;3.30;53.00;;;;;;5095125;28;20666;-75
2022/03/13 03:42:08;;;;;;;44.47;18.60;;;3.30;53.20;;;;;;5095379;28;20032;-75
2022/03/13 03:44:34;;;;;;;34.33;17.55;;;3.20;53.30;;;;;;5095135;28;20028;-74
2022/03/13 03:47:00;;;;;;;36.25;18.10;;;3.10;53.50;;;;;;5093930;28;20032;-74
2022/03/13 03:49:25;;;;;;;38.70;18.08;;;3.10;53.40;;;;;;5095324;28;20028;-74
2022/03/13 03:51:51;;;;;;;33.28;18.02;;;3.10;53.50;;;;;;5094943;28;20464;-74
2022/03/13 03:54:17;;;;;;;34.13;17.90;;;3.10;53.70;;;;;;5095280;28;20024;-75
2022/03/13 03:56:43;;;;;;;33.63;18.27;;;3.10;53.70;;;;;;5095156;28;20031;-75
2022/03/13 03:59:09;;;;;;;32.40;17.17;;;3.10;54.00;;;;;;5095034;28;20016;-74
2022/03/13 04:01:39;;;;;;;36.47;18.88;;;3.10;54.00;;;;;;5094886;28;20025;-74
2022/03/13 04:04:09;;;;;;;35.67;17.98;;;3.00;54.00;;;;;;5094034;28;20108;-74
2022/03/13 04:06:39;;;;;;;31.70;17.02;;;3.00;54.00;;;;;;5093646;28;20027;-74
2022/03/13 04:09:06;;;;;;;33.15;17.90;;;3.00;54.00;;;;;;5094799;28;20036;-75
2022/03/13 04:11:32;;;;;;;36.85;19.02;;;3.10;53.90;;;;;;5094874;28;20172;-75
2022/03/13 04:13:58;;;;;;;34.72;18.25;;;3.10;53.90;;;;;;5094655;28;20031;-74
2022/03/13 04:16:24;;;;;;;34.80;18.42;;;3.00;54.10;;;;;;5094436;28;20395;-75
2022/03/13 04:18:50;;;;;;;37.17;18.15;;;3.00;54.30;;;;;;5094652;28;20028;-74
2022/03/13 04:21:17;;;;;;;34.97;18.20;;;3.00;54.50;;;;;;5094749;28;20048;-74
2022/03/13 04:23:43;;;;;;;39.05;18.65;;;3.10;54.50;;;;;;5094696;28;20461;-76
2022/03/13 04:26:09;;;;;;;27.67;16.05;;;3.10;54.50;;;;;;5094490;28;20020;-75
2022/03/13 04:28:35;;;;;;;36.10;19.10;;;3.10;54.40;;;;;;5094451;28;20055;-75
2022/03/13 04:31:00;;;;;;;36.65;18.30;;;3.10;54.40;;;;;;5094471;28;20081;-74
2022/03/13 04:33:33;;;;;;;32.67;17.08;;;3.00;54.30;;;;;;5094421;28;20017;-74
2022/03/13 04:36:05;;;;;;;35.22;17.45;;;3.00;54.40;;;;;;5092988;28;20362;-75
2022/03/13 04:38:30;;;;;;;36.15;17.13;;;3.00;54.60;;;;;;5094064;28;20422;-75
2022/03/13 04:40:56;;;;;;;34.15;17.27;;;3.10;54.40;;;;;;5094235;28;20089;-74
2022/03/13 04:43:23;;;;;;;33.90;17.65;;;3.10;54.20;;;;;;5094140;28;20020;-74
2022/03/13 04:45:49;;;;;;;34.05;16.98;;;3.10;54.10;;;;;;5092799;28;20020;-75
2022/03/13 04:48:17;;;;;;;33.00;17.88;;;3.10;54.10;;;;;;5094171;28;20028;-74
2022/03/13 04:50:43;;;;;;;32.25;17.60;;;3.20;54.10;;;;;;5093766;28;20122;-75
2022/03/13 04:53:09;;;;;;;35.08;17.98;;;3.10;55.00;;;;;;5093900;28;20016;-74
2022/03/13 04:55:34;;;;;;;37.03;17.77;;;3.10;54.50;;;;;;5094044;28;20035;-74
2022/03/13 04:58:00;;;;;;;31.42;16.88;;;3.10;54.60;;;;;;5093333;28;20016;-74
2022/03/13 05:00:27;;;;;;;41.53;18.85;;;3.00;54.70;;;;;;5092441;28;20023;-74
2022/03/13 05:02:54;;;;;;;33.63;17.80;;;3.00;55.00;;;;;;5093364;28;20023;-75
2022/03/13 05:05:21;;;;;;;36.47;18.63;;;2.90;55.20;;;;;;5093725;28;20020;-74
2022/03/13 05:07:46;;;;;;;34.28;17.90;;;3.00;55.10;;;;;;5093823;28;20490;-75
2022/03/13 05:10:13;;;;;;;39.80;19.33;;;3.00;55.10;;;;;;5093683;28;20110;-75
2022/03/13 05:12:38;;;;;;;35.03;17.85;;;3.00;54.90;;;;;;5093336;28;20022;-75
2022/03/13 05:15:04;;;;;;;34.78;16.90;;;3.00;54.80;;;;;;5093357;28;20360;-74
2022/03/13 05:17:30;;;;;;;34.58;17.02;;;3.00;54.80;;;;;;5093600;28;20064;-75
2022/03/13 05:19:55;;;;;;;33.90;18.45;;;3.00;54.70;;;;;;5093650;28;20510;-75
2022/03/13 05:22:21;;;;;;;33.97;17.52;;;3.00;54.80;;;;;;5093491;28;20027;-75
2022/03/13 05:24:47;;;;;;;33.70;17.73;;;3.00;54.80;;;;;;5093309;28;20024;-75
2022/03/13 05:27:13;;;;;;;31.88;16.85;;;3.00;54.70;;;;;;5093196;28;20024;-75
2022/03/13 05:29:39;;;;;;;34.70;17.95;;;3.10;54.60;;;;;;5093164;28;20032;-75
2022/03/13 05:32:05;;;;;;;33.75;17.83;;;3.10;54.50;;;;;;5093321;28;20051;-75
2022/03/13 05:34:30;;;;;;;32.90;17.70;;;3.10;54.50;;;;;;5093260;28;20389;-75
2022/03/13 05:36:56;;;;;;;31.05;17.85;;;3.00;54.60;;;;;;5093334;28;20027;-75
2022/03/13 05:39:22;;;;;;;30.48;17.27;;;3.00;55.10;;;;;;5093155;28;20166;-75
2022/03/13 05:41:48;;;;;;;36.42;18.17;;;3.00;54.80;;;;;;5093097;28;20038;-75
2022/03/13 05:44:14;;;;;;;32.78;16.55;;;3.00;54.90;;;;;;5093070;28;20073;-75
2022/03/13 05:46:40;;;;;;;33.45;17.02;;;3.00;55.10;;;;;;5093194;28;20028;-75
2022/03/13 05:49:06;;;;;;;35.35;17.90;;;3.00;54.90;;;;;;5092913;28;20030;-74
2022/03/13 05:51:40;;;;;;;31.42;16.13;;;3.00;54.90;;;;;;5093063;28;20357;-74
2022/03/13 05:54:06;;;;;;;31.38;17.52;;;3.00;54.90;;;;;;5092739;28;20016;-75
2022/03/13 05:56:32;;;;;;;33.75;17.85;;;3.00;54.80;;;;;;5092897;28;20085;-75
2022/03/13 05:58:58;;;;;;;30.58;16.33;;;3.00;54.90;;;;;;5093013;28;20141;-74
2022/03/13 06:01:24;;;;;;;31.55;17.50;;;3.00;55.60;;;;;;5092958;28;20492;-74
2022/03/13 06:03:49;;;;;;;30.17;16.88;;;3.10;54.90;;;;;;5092940;28;20373;-74
2022/03/13 06:06:15;;;;;;;33.40;17.30;;;3.00;54.70;;;;;;5092772;28;20024;-74
2022/03/13 06:08:41;;;;;;;33.83;17.08;;;3.00;54.70;;;;;;5092822;28;20045;-75
2022/03/13 06:11:08;;;;;;;28.52;15.90;;;3.10;54.70;;;;;;5094768;28;20130;-75
2022/03/13 06:13:34;;;;;;;32.15;16.25;;;3.00;54.50;;;;;;5097055;28;20107;-75
2022/03/13 06:16:00;;;;;;;33.35;15.32;;;3.10;54.60;;;;;;5096749;28;20056;-75
2022/03/13 06:18:27;;;;;;;28.70;14.68;;;3.10;54.50;;;;;;5096977;28;20410;-74
2022/03/13 06:20:53;;;;;;;27.75;15.27;;;3.20;54.30;;;;;;5096960;28;20060;-74
2022/03/13 06:23:19;;;;;;;28.75;15.23;;;3.10;54.10;;;;;;5095595;28;20467;-74
2022/03/13 06:25:44;;;;;;;33.80;16.40;;;3.20;53.90;;;;;;5096850;28;20031;-74
2022/03/13 06:28:11;;;;;;;25.70;14.30;;;3.30;54.10;;;;;;5096745;28;20030;-75
2022/03/13 06:30:37;;;;;;;29.00;15.73;;;3.30;53.90;;;;;;5096724;28;20081;-75
2022/03/13 06:33:03;;;;;;;32.97;16.05;;;3.30;53.60;;;;;;5096582;28;20033;-74
2022/03/13 06:35:28;;;;;;;30.88;15.90;;;3.50;53.60;;;;;;5096783;28;20113;-75
2022/03/13 06:37:54;;;;;;;28.92;14.80;;;3.50;53.30;;;;;;5096767;28;20471;-75
2022/03/13 06:40:22;;;;;;;26.55;14.85;;;3.60;53.10;;;;;;5096786;28;20077;-77
2022/03/13 06:42:51;;;;;;;27.13;15.35;;;3.70;52.80;;;;;;5096606;28;20024;-75
2022/03/13 06:45:17;;;;;;;25.92;14.30;;;3.80;52.40;;;;;;5096372;28;20517;-76
2022/03/13 06:47:44;;;;;;;22.50;13.43;;;3.90;51.90;;;;;;5096359;28;20024;-75
2022/03/13 06:50:13;;;;;;;26.35;14.75;;;4.00;51.50;;;;;;5096418;28;20400;-75
2022/03/13 06:52:39;;;;;;;24.02;13.70;;;4.10;51.20;;;;;;5096434;28;20022;-75
2022/03/13 06:55:05;;;;;;;31.98;14.85;;;4.20;51.00;;;;;;5096408;28;20032;-75
2022/03/13 06:57:31;;;;;;;27.23;15.05;;;4.30;50.80;;;;;;5094928;28;20020;-75
2022/03/13 07:00:00;;;;;;;28.63;14.63;;;4.40;50.50;;;;;;5096331;28;20560;-75
2022/03/13 07:02:26;;;;;;;27.35;14.48;;;4.50;50.20;;;;;;5096153;28;20063;-74
2022/03/13 07:04:52;;;;;;;27.33;14.35;;;4.50;50.00;;;;;;5096116;28;20388;-74
2022/03/13 07:07:17;;;;;;;27.90;14.38;;;4.70;49.80;;;;;;5096220;28;20465;-75
2022/03/13 07:09:43;;;;;;;24.77;13.02;;;4.80;49.20;;;;;;5096040;28;20032;-75
2022/03/13 07:12:12;;;;;;;24.23;13.45;;;4.90;48.90;;;;;;5095999;28;20031;-76
2022/03/13 07:14:45;;;;;;;25.80;14.00;;;5.10;48.40;;;;;;5095931;28;20460;-75
2022/03/13 07:17:11;;;;;;;25.55;15.20;;;5.30;47.80;;;;;;5095778;28;20050;-74
2022/03/13 07:19:37;;;;;;;24.27;13.15;;;5.40;47.30;;;;;;5095503;28;20025;-75
2022/03/13 07:22:03;;;;;;;24.33;14.07;;;5.50;47.00;;;;;;5094055;28;20384;-75
2022/03/13 07:24:29;;;;;;;24.40;13.27;;;5.60;46.70;;;;;;5095849;28;20028;-75
2022/03/13 07:26:54;;;;;;;22.63;13.35;;;5.80;46.40;;;;;;5095784;28;20138;-75
2022/03/13 07:29:20;;;;;;;25.15;13.85;;;5.90;46.00;;;;;;5095764;28;20047;-75
2022/03/13 07:31:45;;;;;;;23.95;12.93;;;6.10;46.00;;;;;;5095500;28;20031;-75
2022/03/13 07:34:11;;;;;;;24.63;12.77;;;6.20;45.30;;;;;;5095659;28;20092;-75
2022/03/13 07:36:39;;;;;;;20.38;12.02;;;6.40;45.10;;;;;;5095561;28;20095;-74
2022/03/13 07:39:05;;;;;;;21.42;13.20;;;6.60;44.60;;;;;;5095424;28;20111;-75
2022/03/13 07:41:31;;;;;;;23.75;14.45;;;6.70;44.10;;;;;;5094339;28;20120;-74
2022/03/13 07:43:56;;;;;;;24.60;13.35;;;6.80;43.60;;;;;;5095356;28;20164;-75
2022/03/13 07:46:22;;;;;;;24.27;14.07;;;7.00;43.30;;;;;;5095364;28;20032;-74
2022/03/13 07:48:48;;;;;;;22.40;13.50;;;7.10;43.10;;;;;;5095680;28;20412;-75
2022/03/13 07:51:14;;;;;;;24.27;13.98;;;7.10;43.00;;;;;;5095155;28;20131;-74
2022/03/13 07:53:40;;;;;;;21.65;13.90;;;7.20;42.60;;;;;;5095428;28;20051;-75
2022/03/13 07:56:05;;;;;;;22.13;12.45;;;7.40;43.60;;;;;;5095352;28;20027;-76
2022/03/13 07:58:32;;;;;;;20.05;12.70;;;7.60;43.80;;;;;;5095126;28;20426;-74
2022/03/13 08:00:58;;;;;;;20.05;12.80;;;7.80;43.20;;;;;;5095534;28;20111;-74
2022/03/13 08:03:34;;;;;;;21.38;13.05;;;8.00;42.50;;;;;;5095311;28;20105;-74
2022/03/13 08:06:00;;;;;;;22.60;13.50;;;8.20;42.00;;;;;;5095441;28;20020;-76
2022/03/13 08:08:25;;;;;;;25.27;11.73;;;8.40;41.30;;;;;;5095172;28;20028;-73
2022/03/13 08:10:51;;;;;;;22.20;13.55;;;8.50;45.10;;;;;;5094893;28;20035;-72
2022/03/13 08:13:16;;;;;;;22.83;12.73;;;8.80;47.10;;;;;;5095127;28;20020;-73
2022/03/13 08:15:42;;;;;;;26.10;12.48;;;9.30;45.90;;;;;;5094911;28;20044;-72
2022/03/13 08:18:09;;;;;;;19.42;12.50;;;9.60;42.40;;;;;;5094388;28;20028;-72
2022/03/13 08:20:35;;;;;;;20.92;11.90;;;9.80;41.80;;;;;;5094747;28;20024;-72
2022/03/13 08:23:00;;;;;;;22.60;12.65;;;10.20;41.20;;;;;;5094860;28;20121;-72
2022/03/13 08:25:26;;;;;;;17.95;11.07;;;10.40;39.30;;;;;;5094816;28;20028;-72
2022/03/13 08:27:52;;;;;;;17.23;11.68;;;10.50;39.40;;;;;;5094804;28;20026;-73
2022/03/13 08:30:17;;;;;;;25.80;12.30;;;10.90;40.80;;;;;;5094725;28;20044;-73
2022/03/13 08:32:43;;;;;;;21.27;14.02;;;11.10;39.50;;;;;;5094033;28;20024;-73
2022/03/13 08:35:09;;;;;;;18.05;12.35;;;11.40;38.90;;;;;;5094396;28;20028;-73
2022/03/13 08:37:36;;;;;;;18.95;12.02;;;11.70;38.70;;;;;;5094721;28;20436;-72
2022/03/13 08:40:03;;;;;;;18.38;11.73;;;12.00;37.70;;;;;;5094571;28;20461;-72
2022/03/13 08:42:30;;;;;;;18.50;12.05;;;12.40;36.50;;;;;;5094614;28;20016;-72
2022/03/13 08:44:57;;;;;;;19.60;11.02;;;12.70;36.50;;;;;;5094220;28;20460;-73
2022/03/13 08:47:22;;;;;;;17.98;11.80;;;12.90;36.00;;;;;;5094474;28;20056;-72
2022/03/13 08:49:48;;;;;;;16.52;11.32;;;13.10;34.60;;;;;;5094370;28;20488;-72
2022/03/13 08:52:14;;;;;;;19.13;12.15;;;13.40;34.90;;;;;;5094361;28;20266;-73
2022/03/13 08:54:39;;;;;;;19.45;13.43;;;13.50;34.10;;;;;;5094121;28;20016;-76
2022/03/13 08:57:05;;;;;;;20.20;13.45;;;13.40;32.10;;;;;;5093228;28;20024;-76
2022/03/13 08:59:32;;;;;;;20.80;12.90;;;13.10;32.00;;;;;;5094194;28;20031;-78
2022/03/13 09:01:58;;;;;;;18.48;11.70;;;13.00;32.00;;;;;;5092833;28;20445;-78
2022/03/13 09:04:24;;;;;;;17.77;11.68;;;12.80;31.50;;;;;;5094040;28;20028;-76
2022/03/13 09:06:49;;;;;;;19.73;12.55;;;12.80;32.10;;;;;;5093845;28;20020;-75
2022/03/13 09:09:15;;;;;;;16.02;10.57;;;12.90;32.40;;;;;;5093767;28;20020;-75
2022/03/13 09:11:41;;;;;;;14.70;8.90;;;13.00;31.60;;;;;;5093816;28;20064;-76
2022/03/13 09:14:06;;;;;;;26.13;15.68;;;13.10;30.90;;;;;;5093901;28;20012;-75
2022/03/13 09:16:38;;;;;;;16.20;10.13;;;13.20;30.50;;;;;;5093694;28;20044;-75
2022/03/13 09:19:04;;;;;;;16.23;10.57;;;13.40;30.00;;;;;;5093883;28;20487;-75
2022/03/13 09:21:31;;;;;;;15.57;9.30;;;13.40;29.00;;;;;;5093835;28;20056;-75
2022/03/13 09:23:58;;;;;;;13.43;9.13;;;13.40;29.50;;;;;;5094006;28;20159;-75
2022/03/13 09:26:23;;;;;;;24.70;15.50;;;13.50;29.90;;;;;;5093677;28;20044;-75
2022/03/13 09:28:49;;;;;;;23.00;13.95;;;13.50;29.00;;;;;;5093591;28;20468;-76
2022/03/13 09:31:15;;;;;;;16.50;11.20;;;13.60;27.90;;;;;;5093603;28;20028;-76
2022/03/13 09:33:41;;;;;;;17.70;10.90;;;13.70;27.50;;;;;;5095258;28;20103;-75
2022/03/13 09:36:06;;;;;;;20.63;12.20;;;13.80;28.70;;;;;;5093561;28;20024;-75
2022/03/13 09:38:32;;;;;;;21.30;13.57;;;13.90;29.20;;;;;;5093733;28;20024;-75
2022/03/13 09:40:58;;;;;;;23.00;14.02;;;13.70;28.20;;;;;;5093422;28;20050;-77
2022/03/13 09:43:24;;;;;;;25.30;15.90;;;13.70;28.20;;;;;;5093482;28;20020;-75
2022/03/13 09:45:49;;;;;;;21.27;13.95;;;13.80;28.40;;;;;;5093306;28;20475;-75
2022/03/13 09:48:18;;;;;;;26.10;15.27;;;14.10;28.90;;;;;;5093225;28;20388;-75
2022/03/13 09:50:45;;;;;;;23.55;15.35;;;14.30;28.60;;;;;;5091804;28;20036;-75
2022/03/13 09:53:11;;;;;;;30.98;18.25;;;14.40;28.00;;;;;;5093224;28;20020;-75
2022/03/13 09:55:37;;;;;;;33.35;20.50;;;14.40;27.80;;;;;;5093216;28;20028;-75
2022/03/13 09:58:05;;;;;;;29.70;18.33;;;14.60;28.70;;;;;;5092906;28;20357;-75
2022/03/13 10:00:31;;;;;;;26.88;18.20;;;14.80;28.00;;;;;;5089271;28;20050;-75
2022/03/13 10:02:57;;;;;;;33.70;18.92;;;14.90;27.70;;;;;;5091721;28;20016;-78
2022/03/13 10:05:25;;;;;;;29.60;18.02;;;14.70;27.40;;;;;;5091966;28;20040;-78
2022/03/13 10:07:58;;;;;;;27.13;18.77;;;14.80;27.30;;;;;;5090015;28;20020;-78
2022/03/13 10:10:27;;;;;;;36.22;19.60;;;15.00;27.60;;;;;;5093009;28;20060;-78
2022/03/13 10:12:53;;;;;;;29.90;17.75;;;15.20;27.60;;;;;;5093082;28;20081;-79
2022/03/13 10:15:19;;;;;;;27.98;17.10;;;15.50;27.60;;;;;;5091656;28;20077;-80
2022/03/13 10:17:45;;;;;;;28.80;17.45;;;15.60;27.00;;;;;;5091645;28;20027;-78
2022/03/13 10:20:20;;;;;;;27.65;18.30;;;15.80;27.10;;;;;;5092604;28;20487;-76
2022/03/13 10:23:10;;;;;;;25.85;17.17;;;16.00;26.00;;;;;;5092895;28;20060;-79
2022/03/13 10:25:38;;;;;;;26.63;16.92;;;16.10;25.70;;;;;;5093473;28;20055;-80
2022/03/13 10:28:30;;;;;;;29.80;17.85;;;16.20;26.00;;;;;;5092702;28;20012;-76
2022/03/13 10:30:59;;;;;;;26.40;16.85;;;16.50;26.50;;;;;;5092882;28;20063;-79
2022/03/13 10:33:48;;;;;;;29.75;18.02;;;16.90;25.90;;;;;;5092738;28;20095;-77
2022/03/13 10:36:18;;;;;;;28.25;18.65;;;16.80;23.80;;;;;;5091706;28;20028;-75
2022/03/13 10:38:45;;;;;;;27.45;17.50;;;16.80;23.60;;;;;;5092786;28;20043;-76
2022/03/13 10:41:12;;;;;;;24.27;15.70;;;17.00;23.90;;;;;;5092865;28;20020;-76
2022/03/13 10:43:46;;;;;;;22.52;15.70;;;17.20;24.00;;;;;;5092688;28;20020;-77
2022/03/13 10:46:23;;;;;;;26.25;17.30;;;17.50;23.90;;;;;;5093129;28;20016;-79
2022/03/13 10:48:49;;;;;;;28.13;17.60;;;17.90;24.20;;;;;;5091091;28;20039;-77
2022/03/13 10:51:17;;;;;;;28.98;19.45;;;18.10;22.80;;;;;;5091268;28;20118;-79
2022/03/13 10:53:42;;;;;;;25.35;17.92;;;18.20;22.10;;;;;;5091651;28;20528;-80
2022/03/13 10:56:13;;;;;;;27.90;18.00;;;18.10;22.80;;;;;;5092344;28;20051;-78
2022/03/13 10:58:48;;;;;;;32.72;18.85;;;18.20;21.80;;;;;;5096489;28;20024;-77
2022/03/13 11:01:18;;;;;;;27.70;18.05;;;18.30;21.40;;;;;;5096486;28;20025;-78
2022/03/13 11:04:01;;;;;;;27.80;18.25;;;18.10;21.50;;;;;;5096056;28;20036;-79
2022/03/13 11:06:27;;;;;;;29.25;18.20;;;17.90;22.10;;;;;;5096440;28;20016;-79
2022/03/13 11:08:55;;;;;;;29.48;18.95;;;17.70;22.60;;;;;;5095900;28;20024;-78
2022/03/13 11:11:27;;;;;;;24.67;17.35;;;17.30;23.40;;;;;;5096415;28;20507;-78
2022/03/13 11:13:55;;;;;;;28.80;17.40;;;17.20;24.00;;;;;;5096105;28;20016;-79
2022/03/13 11:16:26;;;;;;;25.33;17.38;;;17.50;24.10;;;;;;5092654;28;20063;-79
2022/03/13 11:18:54;;;;;;;28.27;18.77;;;17.70;23.70;;;;;;5095909;28;20024;-76
2022/03/13 11:21:20;;;;;;;30.33;18.48;;;17.70;23.30;;;;;;5096179;28;20046;-78
2022/03/13 11:23:46;;;;;;;29.33;19.35;;;17.70;23.30;;;;;;5096020;28;20023;-75
2022/03/13 11:26:16;;;;;;;29.38;18.58;;;17.60;23.10;;;;;;5096042;28;20024;-75
2022/03/13 11:28:46;;;;;;;28.17;18.77;;;17.80;23.20;;;;;;5095848;28;20048;-77
2022/03/13 11:31:32;;;;;;;32.80;19.77;;;18.00;22.70;;;;;;5095650;28;20039;-82
2022/03/13 11:34:20;;;;;;;31.77;20.05;;;18.10;22.60;;;;;;5095483;28;20020;-78
2022/03/13 11:36:46;;;;;;;30.55;19.80;;;18.00;22.20;;;;;;5093031;28;20059;-77
2022/03/13 11:39:24;;;;;;;28.85;19.23;;;17.80;22.80;;;;;;5094733;28;20063;-79
2022/03/13 11:41:50;;;;;;;30.58;19.30;;;17.60;23.00;;;;;;5095453;28;20025;-78
2022/03/13 11:44:19;;;;;;;32.25;19.73;;;18.00;23.10;;;;;;5097013;28;20055;-77
2022/03/13 11:46:46;;;;;;;29.98;20.40;;;18.00;22.40;;;;;;5101749;28;20441;-78
2022/03/13 11:49:16;;;;;;;33.75;21.33;;;17.70;22.50;;;;;;5095859;28;20060;-76
2022/03/13 11:51:44;;;;;;;31.50;20.73;;;17.70;22.90;;;;;;5095464;28;20039;-77
2022/03/13 11:54:15;;;;;;;29.63;20.00;;;18.00;22.70;;;;;;5095538;28;20051;-76
2022/03/13 11:56:48;;;;;;;32.20;20.77;;;18.20;21.90;;;;;;5093774;28;20531;-74
2022/03/13 11:59:18;;;;;;;32.15;20.17;;;18.80;21.50;;;;;;5095364;28;20028;-74
2022/03/13 12:01:44;;;;;;;31.02;20.65;;;19.20;20.60;;;;;;5094931;28;20080;-75
2022/03/13 12:04:21;;;;;;;37.55;20.95;;;19.00;20.40;;;;;;5095057;28;20031;-76
2022/03/13 12:06:53;;;;;;;30.73;20.60;;;18.60;20.60;;;;;;5094986;28;20023;-77
2022/03/13 12:09:18;;;;;;;33.85;20.98;;;18.60;21.30;;;;;;5093787;28;20110;-77
2022/03/13 12:11:54;;;;;;;33.50;21.02;;;19.10;21.80;;;;;;5094745;28;20458;-78
2022/03/13 12:14:20;;;;;;;28.85;20.05;;;19.40;20.60;;;;;;5094790;28;20023;-76
2022/03/13 12:17:03;;;;;;;30.33;20.88;;;19.60;20.20;;;;;;5094604;28;20052;-74
2022/03/13 12:19:37;;;;;;;31.38;21.02;;;19.90;20.00;;;;;;5094871;28;20107;-75
2022/03/13 12:22:05;;;;;;;32.22;21.02;;;20.00;19.70;;;;;;5094794;28;20073;-75
2022/03/13 12:24:33;;;;;;;32.88;21.20;;;20.00;19.50;;;;;;5094626;28;20046;-75
2022/03/13 12:27:02;;;;;;;28.00;19.52;;;20.40;19.90;;;;;;5094519;28;20103;-77
2022/03/13 12:29:30;;;;;;;29.55;21.10;;;20.80;19.30;;;;;;5094458;28;20111;-76
2022/03/13 12:31:56;;;;;;;33.83;21.38;;;21.20;18.90;;;;;;5094257;28;20388;-73
2022/03/13 12:34:30;;;;;;;28.73;20.90;;;21.10;18.10;;;;;;5093050;28;20024;-74